sensor_id;sensor_type;location;lat;lon;timestamp;temperature;humidity
22081;DHT22;11207;59.512;18.050;2023-04-06T00:02:11;-1.80;99.90
22081;DHT22;11207;59.512;18.050;2023-04-06T00:04:37;-1.80;99.90
22081;DHT22;11207;59.512;18.050;2023-04-06T00:07:02;-1.80;99.90
22081;DHT22;11207;59.512;18.050;2023-04-06T00:09:28;-1.80;99.90
22081;DHT22;11207;59.512;18.050;2023-04-06T00:11:54;-1.60;99.90
22081;DHT22;11207;59.512;18.050;2023-04-06T00:14:20;-1.80;99.90
22081;DHT22;11207;59.512;18.050;2023-04-06T00:16:45;-1.80;99.90
22081;DHT22;11207;59.512;18.050;2023-04-06T00:19:11;-1.80;99.90
22081;DHT22;11207;59.512;18.050;2023-04-06T00:21:37;-1.80;99.90
22081;DHT22;11207;59.512;18.050;2023-04-06T00:24:02;-1.80;99.90
22081;DHT22;11207;59.512;18.050;2023-04-06T00:26:32;-1.90;99.90
22081;DHT22;11207;59.512;18.050;2023-04-06T00:28:58;-1.90;99.90
22081;DHT22;11207;59.512;18.050;2023-04-06T00:31:24;-1.90;99.90
22081;DHT22;11207;59.512;18.050;2023-04-06T00:33:50;-1.90;99.90
22081;DHT22;11207;59.512;18.050;2023-04-06T00:36:15;-1.90;99.90
22081;DHT22;11207;59.512;18.050;2023-04-06T00:38:41;-2.00;99.90
22081;DHT22;11207;59.512;18.050;2023-04-06T00:41:08;-1.90;99.90
22081;DHT22;11207;59.512;18.050;2023-04-06T00:43:34;-1.90;99.90
22081;DHT22;11207;59.512;18.050;2023-04-06T00:46:00;-1.90;99.90
22081;DHT22;11207;59.512;18.050;2023-04-06T00:48:26;-1.90;99.90
22081;DHT22;11207;59.512;18.050;2023-04-06T00:50:52;-1.90;99.90
22081;DHT22;11207;59.512;18.050;2023-04-06T00:53:20;-1.90;99.90
22081;DHT22;11207;59.512;18.050;2023-04-06T00:55:46;-1.90;99.90
22081;DHT22;11207;59.512;18.050;2023-04-06T00:58:12;-2.00;99.90
22081;DHT22;11207;59.512;18.050;2023-04-06T01:00:38;-2.00;99.90
22081;DHT22;11207;59.512;18.050;2023-04-06T01:03:03;-2.00;99.90
22081;DHT22;11207;59.512;18.050;2023-04-06T01:05:34;-2.00;99.90
22081;DHT22;11207;59.512;18.050;2023-04-06T01:08:06;-2.00;99.90
22081;DHT22;11207;59.512;18.050;2023-04-06T01:10:32;-2.00;99.90
22081;DHT22;11207;59.512;18.050;2023-04-06T01:12:58;-2.00;99.90
22081;DHT22;11207;59.512;18.050;2023-04-06T01:15:24;-1.90;99.90
22081;DHT22;11207;59.512;18.050;2023-04-06T01:17:49;-1.90;99.90
22081;DHT22;11207;59.512;18.050;2023-04-06T01:20:15;-1.90;99.90
22081;DHT22;11207;59.512;18.050;2023-04-06T01:22:41;-1.90;99.90
22081;DHT22;11207;59.512;18.050;2023-04-06T01:25:07;-2.00;99.90
22081;DHT22;11207;59.512;18.050;2023-04-06T01:27:33;-2.00;99.90
22081;DHT22;11207;59.512;18.050;2023-04-06T01:29:59;-2.00;99.90
22081;DHT22;11207;59.512;18.050;2023-04-06T01:32:25;-2.00;99.90
22081;DHT22;11207;59.512;18.050;2023-04-06T01:34:50;-1.90;99.90
22081;DHT22;11207;59.512;18.050;2023-04-06T01:37:16;-1.90;99.90
22081;DHT22;11207;59.512;18.050;2023-04-06T01:39:43;-1.90;99.90
22081;DHT22;11207;59.512;18.050;2023-04-06T01:42:08;-1.90;99.90
22081;DHT22;11207;59.512;18.050;2023-04-06T01:44:36;-1.90;99.90
22081;DHT22;11207;59.512;18.050;2023-04-06T01:47:02;-1.90;99.90
22081;DHT22;11207;59.512;18.050;2023-04-06T01:49:28;-1.90;99.90
22081;DHT22;11207;59.512;18.050;2023-04-06T01:51:53;-1.90;99.90
22081;DHT22;11207;59.512;18.050;2023-04-06T01:54:19;-1.90;99.90
22081;DHT22;11207;59.512;18.050;2023-04-06T01:56:45;-1.90;99.90
22081;DHT22;11207;59.512;18.050;2023-04-06T01:59:11;-2.00;99.90
22081;DHT22;11207;59.512;18.050;2023-04-06T02:01:36;-2.00;99.90
22081;DHT22;11207;59.512;18.050;2023-04-06T02:04:02;-2.00;99.90
22081;DHT22;11207;59.512;18.050;2023-04-06T02:06:28;-2.00;99.90
22081;DHT22;11207;59.512;18.050;2023-04-06T02:08:54;-2.10;99.90
22081;DHT22;11207;59.512;18.050;2023-04-06T02:11:19;-2.10;99.90
22081;DHT22;11207;59.512;18.050;2023-04-06T02:13:45;-2.10;99.90
22081;DHT22;11207;59.512;18.050;2023-04-06T02:16:11;-2.10;99.90
22081;DHT22;11207;59.512;18.050;2023-04-06T02:18:36;-2.00;99.90
22081;DHT22;11207;59.512;18.050;2023-04-06T02:21:02;-2.00;99.90
22081;DHT22;11207;59.512;18.050;2023-04-06T02:23:27;-2.00;99.90
22081;DHT22;11207;59.512;18.050;2023-04-06T02:25:53;-2.00;99.90
22081;DHT22;11207;59.512;18.050;2023-04-06T02:28:19;-2.00;99.90
22081;DHT22;11207;59.512;18.050;2023-04-06T02:30:44;-2.10;99.90
22081;DHT22;11207;59.512;18.050;2023-04-06T02:33:10;-2.00;99.90
22081;DHT22;11207;59.512;18.050;2023-04-06T02:35:35;-2.00;99.90
22081;DHT22;11207;59.512;18.050;2023-04-06T02:38:01;-2.00;99.90
22081;DHT22;11207;59.512;18.050;2023-04-06T02:40:27;-2.00;99.90
22081;DHT22;11207;59.512;18.050;2023-04-06T02:42:54;-1.90;99.90
22081;DHT22;11207;59.512;18.050;2023-04-06T02:45:19;-1.90;99.90
22081;DHT22;11207;59.512;18.050;2023-04-06T02:47:45;-1.90;99.90
22081;DHT22;11207;59.512;18.050;2023-04-06T02:50:11;-1.90;99.90
22081;DHT22;11207;59.512;18.050;2023-04-06T02:52:37;-1.90;99.90
22081;DHT22;11207;59.512;18.050;2023-04-06T02:55:02;-1.80;99.90
22081;DHT22;11207;59.512;18.050;2023-04-06T02:57:28;-1.80;99.90
22081;DHT22;11207;59.512;18.050;2023-04-06T02:59:54;-1.80;99.90
22081;DHT22;11207;59.512;18.050;2023-04-06T03:02:19;-1.80;99.90
22081;DHT22;11207;59.512;18.050;2023-04-06T03:04:45;-1.80;99.90
22081;DHT22;11207;59.512;18.050;2023-04-06T03:07:11;-1.80;99.90
22081;DHT22;11207;59.512;18.050;2023-04-06T03:09:37;-1.80;99.90
22081;DHT22;11207;59.512;18.050;2023-04-06T03:12:03;-1.60;99.90
22081;DHT22;11207;59.512;18.050;2023-04-06T03:14:29;-1.80;99.90
22081;DHT22;11207;59.512;18.050;2023-04-06T03:16:55;-1.80;99.90
22081;DHT22;11207;59.512;18.050;2023-04-06T03:19:21;-1.80;99.90
22081;DHT22;11207;59.512;18.050;2023-04-06T03:21:46;-1.70;99.90
22081;DHT22;11207;59.512;18.050;2023-04-06T03:24:12;-1.90;99.90
22081;DHT22;11207;59.512;18.050;2023-04-06T03:26:39;-1.90;99.90
22081;DHT22;11207;59.512;18.050;2023-04-06T03:29:04;-1.90;99.90
22081;DHT22;11207;59.512;18.050;2023-04-06T03:31:30;-1.80;99.90
22081;DHT22;11207;59.512;18.050;2023-04-06T03:33:56;-1.90;99.90
22081;DHT22;11207;59.512;18.050;2023-04-06T03:36:21;-1.90;99.90
22081;DHT22;11207;59.512;18.050;2023-04-06T03:38:47;-2.00;99.90
22081;DHT22;11207;59.512;18.050;2023-04-06T03:41:13;-2.00;99.90
22081;DHT22;11207;59.512;18.050;2023-04-06T03:43:38;-2.00;99.90
22081;DHT22;11207;59.512;18.050;2023-04-06T03:46:04;-2.00;99.90
22081;DHT22;11207;59.512;18.050;2023-04-06T03:48:32;-2.00;99.90
22081;DHT22;11207;59.512;18.050;2023-04-06T03:50:58;-2.00;99.90
22081;DHT22;11207;59.512;18.050;2023-04-06T03:53:23;-2.10;99.90
22081;DHT22;11207;59.512;18.050;2023-04-06T03:55:49;-2.20;99.90
22081;DHT22;11207;59.512;18.050;2023-04-06T03:58:14;-2.20;99.90
22081;DHT22;11207;59.512;18.050;2023-04-06T04:00:40;-2.10;99.90
22081;DHT22;11207;59.512;18.050;2023-04-06T04:03:06;-2.10;99.90
22081;DHT22;11207;59.512;18.050;2023-04-06T04:05:31;-2.10;99.90
22081;DHT22;11207;59.512;18.050;2023-04-06T04:07:57;-2.00;99.90
22081;DHT22;11207;59.512;18.050;2023-04-06T04:10:23;-2.00;99.90
22081;DHT22;11207;59.512;18.050;2023-04-06T04:12:48;-2.00;99.90
22081;DHT22;11207;59.512;18.050;2023-04-06T04:15:14;-2.00;99.90
22081;DHT22;11207;59.512;18.050;2023-04-06T04:17:39;-2.00;99.90
22081;DHT22;11207;59.512;18.050;2023-04-06T04:20:05;-1.90;99.90
22081;DHT22;11207;59.512;18.050;2023-04-06T04:22:31;-1.80;99.90
22081;DHT22;11207;59.512;18.050;2023-04-06T04:24:57;-1.80;99.90
22081;DHT22;11207;59.512;18.050;2023-04-06T04:27:22;-1.70;99.90
22081;DHT22;11207;59.512;18.050;2023-04-06T04:29:48;-1.70;99.90
22081;DHT22;11207;59.512;18.050;2023-04-06T04:32:14;-1.60;99.90
22081;DHT22;11207;59.512;18.050;2023-04-06T04:34:40;-1.60;99.90
22081;DHT22;11207;59.512;18.050;2023-04-06T04:37:06;-1.40;99.90
22081;DHT22;11207;59.512;18.050;2023-04-06T04:39:32;-1.40;99.90
22081;DHT22;11207;59.512;18.050;2023-04-06T04:41:58;-1.40;99.90
22081;DHT22;11207;59.512;18.050;2023-04-06T04:44:23;-1.30;99.90
22081;DHT22;11207;59.512;18.050;2023-04-06T04:46:49;-1.30;99.90
22081;DHT22;11207;59.512;18.050;2023-04-06T04:49:16;-1.30;99.90
22081;DHT22;11207;59.512;18.050;2023-04-06T04:51:41;-1.30;99.90
22081;DHT22;11207;59.512;18.050;2023-04-06T04:54:07;-1.20;99.90
22081;DHT22;11207;59.512;18.050;2023-04-06T04:56:32;-1.20;99.90
22081;DHT22;11207;59.512;18.050;2023-04-06T04:58:58;-1.10;99.90
22081;DHT22;11207;59.512;18.050;2023-04-06T05:01:24;-1.00;99.90
22081;DHT22;11207;59.512;18.050;2023-04-06T05:03:49;-1.00;99.90
22081;DHT22;11207;59.512;18.050;2023-04-06T05:06:15;-1.00;99.90
22081;DHT22;11207;59.512;18.050;2023-04-06T05:08:41;-0.70;99.90
22081;DHT22;11207;59.512;18.050;2023-04-06T05:11:08;-0.80;99.90
22081;DHT22;11207;59.512;18.050;2023-04-06T05:13:34;-0.70;99.90
22081;DHT22;11207;59.512;18.050;2023-04-06T05:15:59;-0.70;99.90
22081;DHT22;11207;59.512;18.050;2023-04-06T05:18:25;-0.60;99.90
22081;DHT22;11207;59.512;18.050;2023-04-06T05:20:51;-0.50;99.90
22081;DHT22;11207;59.512;18.050;2023-04-06T05:23:17;-0.50;99.90
22081;DHT22;11207;59.512;18.050;2023-04-06T05:25:42;-0.40;99.90
22081;DHT22;11207;59.512;18.050;2023-04-06T05:28:08;-0.40;99.90
22081;DHT22;11207;59.512;18.050;2023-04-06T05:30:34;-0.30;99.90
22081;DHT22;11207;59.512;18.050;2023-04-06T05:33:02;-0.30;99.90
22081;DHT22;11207;59.512;18.050;2023-04-06T05:35:27;-0.30;99.90
22081;DHT22;11207;59.512;18.050;2023-04-06T05:37:53;-0.20;99.90
22081;DHT22;11207;59.512;18.050;2023-04-06T05:40:18;-0.10;99.90
22081;DHT22;11207;59.512;18.050;2023-04-06T05:42:44;0.00;99.90
22081;DHT22;11207;59.512;18.050;2023-04-06T05:45:11;0.10;99.90
22081;DHT22;11207;59.512;18.050;2023-04-06T05:47:42;0.20;99.90
22081;DHT22;11207;59.512;18.050;2023-04-06T05:50:07;0.30;99.90
22081;DHT22;11207;59.512;18.050;2023-04-06T05:52:33;0.40;99.90
22081;DHT22;11207;59.512;18.050;2023-04-06T05:54:59;0.50;99.90
22081;DHT22;11207;59.512;18.050;2023-04-06T05:57:24;0.60;99.90
22081;DHT22;11207;59.512;18.050;2023-04-06T05:59:50;0.70;99.90
22081;DHT22;11207;59.512;18.050;2023-04-06T06:02:15;0.80;99.90
22081;DHT22;11207;59.512;18.050;2023-04-06T06:04:41;0.90;99.90
22081;DHT22;11207;59.512;18.050;2023-04-06T06:07:07;0.90;99.90
22081;DHT22;11207;59.512;18.050;2023-04-06T06:09:34;1.10;99.90
22081;DHT22;11207;59.512;18.050;2023-04-06T06:12:03;1.20;99.90
22081;DHT22;11207;59.512;18.050;2023-04-06T06:14:28;1.30;99.90
22081;DHT22;11207;59.512;18.050;2023-04-06T06:16:54;1.30;99.90
22081;DHT22;11207;59.512;18.050;2023-04-06T06:19:20;1.40;99.90
22081;DHT22;11207;59.512;18.050;2023-04-06T06:21:46;1.50;99.90
22081;DHT22;11207;59.512;18.050;2023-04-06T06:24:11;1.60;99.90
22081;DHT22;11207;59.512;18.050;2023-04-06T06:26:37;1.70;99.90
22081;DHT22;11207;59.512;18.050;2023-04-06T06:29:05;1.70;99.90
22081;DHT22;11207;59.512;18.050;2023-04-06T06:31:31;1.90;99.90
22081;DHT22;11207;59.512;18.050;2023-04-06T06:33:56;1.90;99.90
22081;DHT22;11207;59.512;18.050;2023-04-06T06:36:22;2.00;99.90
22081;DHT22;11207;59.512;18.050;2023-04-06T06:38:48;2.10;99.90
22081;DHT22;11207;59.512;18.050;2023-04-06T06:41:13;2.20;99.90
22081;DHT22;11207;59.512;18.050;2023-04-06T06:43:39;2.30;99.90
22081;DHT22;11207;59.512;18.050;2023-04-06T06:46:05;2.40;99.90
22081;DHT22;11207;59.512;18.050;2023-04-06T06:48:31;2.50;99.90
22081;DHT22;11207;59.512;18.050;2023-04-06T06:50:57;2.50;99.90
22081;DHT22;11207;59.512;18.050;2023-04-06T06:53:23;2.60;99.90
22081;DHT22;11207;59.512;18.050;2023-04-06T06:55:49;2.70;99.90
22081;DHT22;11207;59.512;18.050;2023-04-06T06:58:17;2.70;99.90
22081;DHT22;11207;59.512;18.050;2023-04-06T07:00:42;2.80;99.90
22081;DHT22;11207;59.512;18.050;2023-04-06T07:05:57;2.90;99.90
22081;DHT22;11207;59.512;18.050;2023-04-06T07:08:24;3.00;99.90
22081;DHT22;11207;59.512;18.050;2023-04-06T07:10:51;3.00;99.90
22081;DHT22;11207;59.512;18.050;2023-04-06T07:13:23;3.00;99.90
22081;DHT22;11207;59.512;18.050;2023-04-06T07:15:50;3.30;99.90
22081;DHT22;11207;59.512;18.050;2023-04-06T07:18:16;3.20;99.90
22081;DHT22;11207;59.512;18.050;2023-04-06T07:20:42;3.30;99.90
22081;DHT22;11207;59.512;18.050;2023-04-06T07:23:08;3.30;99.90
22081;DHT22;11207;59.512;18.050;2023-04-06T07:25:34;3.20;99.90
22081;DHT22;11207;59.512;18.050;2023-04-06T07:27:59;3.20;99.90
22081;DHT22;11207;59.512;18.050;2023-04-06T07:30:25;3.40;99.90
22081;DHT22;11207;59.512;18.050;2023-04-06T07:32:53;3.50;99.90
22081;DHT22;11207;59.512;18.050;2023-04-06T07:35:21;3.50;99.90
22081;DHT22;11207;59.512;18.050;2023-04-06T07:37:46;3.50;99.90
22081;DHT22;11207;59.512;18.050;2023-04-06T07:40:12;3.50;99.90
22081;DHT22;11207;59.512;18.050;2023-04-06T07:42:37;3.50;99.90
22081;DHT22;11207;59.512;18.050;2023-04-06T07:45:03;3.50;99.90
22081;DHT22;11207;59.512;18.050;2023-04-06T07:47:32;3.50;99.90
22081;DHT22;11207;59.512;18.050;2023-04-06T07:49:57;3.50;99.90
22081;DHT22;11207;59.512;18.050;2023-04-06T07:52:23;3.50;99.90
22081;DHT22;11207;59.512;18.050;2023-04-06T07:54:49;3.80;99.90
22081;DHT22;11207;59.512;18.050;2023-04-06T07:57:14;3.80;99.90
22081;DHT22;11207;59.512;18.050;2023-04-06T07:59:40;3.90;99.90
22081;DHT22;11207;59.512;18.050;2023-04-06T08:02:06;3.90;99.90
22081;DHT22;11207;59.512;18.050;2023-04-06T08:04:31;3.90;99.90
22081;DHT22;11207;59.512;18.050;2023-04-06T08:06:57;4.00;99.90
22081;DHT22;11207;59.512;18.050;2023-04-06T08:09:23;4.10;99.90
22081;DHT22;11207;59.512;18.050;2023-04-06T08:11:48;4.20;99.90
22081;DHT22;11207;59.512;18.050;2023-04-06T08:14:14;4.00;99.90
22081;DHT22;11207;59.512;18.050;2023-04-06T08:16:43;4.00;99.90
22081;DHT22;11207;59.512;18.050;2023-04-06T08:19:09;4.10;99.90
22081;DHT22;11207;59.512;18.050;2023-04-06T08:21:37;4.20;99.90
22081;DHT22;11207;59.512;18.050;2023-04-06T08:24:06;3.80;99.90
22081;DHT22;11207;59.512;18.050;2023-04-06T08:26:32;3.80;99.90
22081;DHT22;11207;59.512;18.050;2023-04-06T08:28:57;3.70;99.90
22081;DHT22;11207;59.512;18.050;2023-04-06T08:31:23;3.80;99.90
22081;DHT22;11207;59.512;18.050;2023-04-06T08:33:49;4.00;99.90
22081;DHT22;11207;59.512;18.050;2023-04-06T08:36:15;4.10;99.90
22081;DHT22;11207;59.512;18.050;2023-04-06T08:38:42;4.20;99.90
22081;DHT22;11207;59.512;18.050;2023-04-06T08:41:12;4.20;99.90
22081;DHT22;11207;59.512;18.050;2023-04-06T08:43:49;4.50;99.90
22081;DHT22;11207;59.512;18.050;2023-04-06T08:46:15;4.60;99.90
22081;DHT22;11207;59.512;18.050;2023-04-06T08:48:42;4.70;99.90
22081;DHT22;11207;59.512;18.050;2023-04-06T08:51:09;4.70;99.90
22081;DHT22;11207;59.512;18.050;2023-04-06T08:53:38;4.60;99.90
22081;DHT22;11207;59.512;18.050;2023-04-06T08:56:12;4.60;99.90
22081;DHT22;11207;59.512;18.050;2023-04-06T08:58:39;4.70;99.90
22081;DHT22;11207;59.512;18.050;2023-04-06T09:01:11;5.00;99.90
22081;DHT22;11207;59.512;18.050;2023-04-06T09:03:39;4.90;99.90
22081;DHT22;11207;59.512;18.050;2023-04-06T09:06:06;5.10;99.90
22081;DHT22;11207;59.512;18.050;2023-04-06T09:08:39;5.10;99.90
22081;DHT22;11207;59.512;18.050;2023-04-06T09:11:05;5.20;99.90
22081;DHT22;11207;59.512;18.050;2023-04-06T09:13:32;5.10;99.90
22081;DHT22;11207;59.512;18.050;2023-04-06T09:16:09;5.20;99.90
22081;DHT22;11207;59.512;18.050;2023-04-06T09:18:34;5.20;99.90
22081;DHT22;11207;59.512;18.050;2023-04-06T09:21:04;5.40;99.90
22081;DHT22;11207;59.512;18.050;2023-04-06T09:23:31;5.40;99.90
22081;DHT22;11207;59.512;18.050;2023-04-06T09:26:23;5.30;99.90
22081;DHT22;11207;59.512;18.050;2023-04-06T09:28:59;5.20;99.90
22081;DHT22;11207;59.512;18.050;2023-04-06T09:31:32;5.20;99.90
22081;DHT22;11207;59.512;18.050;2023-04-06T09:33:59;5.20;99.90
22081;DHT22;11207;59.512;18.050;2023-04-06T09:36:34;5.20;99.90
22081;DHT22;11207;59.512;18.050;2023-04-06T09:39:04;5.20;99.90
22081;DHT22;11207;59.512;18.050;2023-04-06T09:41:35;5.20;99.90
22081;DHT22;11207;59.512;18.050;2023-04-06T09:44:04;5.30;99.90
22081;DHT22;11207;59.512;18.050;2023-04-06T09:46:38;5.30;99.90
22081;DHT22;11207;59.512;18.050;2023-04-06T09:49:05;5.10;99.90
22081;DHT22;11207;59.512;18.050;2023-04-06T09:51:37;5.10;99.90
22081;DHT22;11207;59.512;18.050;2023-04-06T09:54:04;5.00;99.90
22081;DHT22;11207;59.512;18.050;2023-04-06T09:56:47;4.90;99.90
22081;DHT22;11207;59.512;18.050;2023-04-06T09:59:14;5.00;99.90
22081;DHT22;11207;59.512;18.050;2023-04-06T10:01:41;4.70;99.90
22081;DHT22;11207;59.512;18.050;2023-04-06T10:04:10;4.90;99.90
22081;DHT22;11207;59.512;18.050;2023-04-06T10:06:38;4.90;99.90
22081;DHT22;11207;59.512;18.050;2023-04-06T10:09:12;5.00;99.90
22081;DHT22;11207;59.512;18.050;2023-04-06T10:11:39;5.00;99.90
22081;DHT22;11207;59.512;18.050;2023-04-06T10:14:05;5.10;99.90
22081;DHT22;11207;59.512;18.050;2023-04-06T10:16:31;5.20;99.90
22081;DHT22;11207;59.512;18.050;2023-04-06T10:19:02;5.20;99.90
22081;DHT22;11207;59.512;18.050;2023-04-06T10:21:31;5.40;99.90
22081;DHT22;11207;59.512;18.050;2023-04-06T10:23:59;5.50;99.90
22081;DHT22;11207;59.512;18.050;2023-04-06T10:26:26;5.70;99.90
22081;DHT22;11207;59.512;18.050;2023-04-06T10:28:52;5.70;99.90
22081;DHT22;11207;59.512;18.050;2023-04-06T10:31:50;5.80;99.90
22081;DHT22;11207;59.512;18.050;2023-04-06T10:34:34;6.00;99.90
22081;DHT22;11207;59.512;18.050;2023-04-06T10:37:13;5.70;99.90
22081;DHT22;11207;59.512;18.050;2023-04-06T10:39:53;5.50;99.90
22081;DHT22;11207;59.512;18.050;2023-04-06T10:42:37;5.50;99.90
22081;DHT22;11207;59.512;18.050;2023-04-06T10:45:07;5.50;99.90
22081;DHT22;11207;59.512;18.050;2023-04-06T10:47:40;5.60;99.90
22081;DHT22;11207;59.512;18.050;2023-04-06T10:50:07;5.60;99.90
22081;DHT22;11207;59.512;18.050;2023-04-06T10:52:36;5.70;99.90
22081;DHT22;11207;59.512;18.050;2023-04-06T10:55:02;5.70;99.90
22081;DHT22;11207;59.512;18.050;2023-04-06T10:57:29;5.80;99.90
22081;DHT22;11207;59.512;18.050;2023-04-06T10:59:56;5.70;99.90
22081;DHT22;11207;59.512;18.050;2023-04-06T11:02:21;5.70;99.90
22081;DHT22;11207;59.512;18.050;2023-04-06T11:04:55;5.70;99.90
22081;DHT22;11207;59.512;18.050;2023-04-06T11:07:28;5.90;99.90
22081;DHT22;11207;59.512;18.050;2023-04-06T11:09:55;5.50;99.90
22081;DHT22;11207;59.512;18.050;2023-04-06T11:12:25;5.60;99.90
22081;DHT22;11207;59.512;18.050;2023-04-06T11:15:02;5.70;99.90
22081;DHT22;11207;59.512;18.050;2023-04-06T11:17:35;5.90;99.90
22081;DHT22;11207;59.512;18.050;2023-04-06T11:20:09;5.80;99.90
22081;DHT22;11207;59.512;18.050;2023-04-06T11:22:36;5.80;99.90
22081;DHT22;11207;59.512;18.050;2023-04-06T11:25:06;5.80;99.90
22081;DHT22;11207;59.512;18.050;2023-04-06T11:27:35;5.80;99.90
22081;DHT22;11207;59.512;18.050;2023-04-06T11:30:02;5.70;99.90
22081;DHT22;11207;59.512;18.050;2023-04-06T11:32:28;5.70;99.90
22081;DHT22;11207;59.512;18.050;2023-04-06T11:34:57;5.80;99.90
22081;DHT22;11207;59.512;18.050;2023-04-06T11:37:26;5.70;99.90
22081;DHT22;11207;59.512;18.050;2023-04-06T11:39:54;5.80;99.90
22081;DHT22;11207;59.512;18.050;2023-04-06T11:42:28;5.90;99.90
22081;DHT22;11207;59.512;18.050;2023-04-06T11:44:58;5.80;99.90
22081;DHT22;11207;59.512;18.050;2023-04-06T11:47:37;5.90;99.90
22081;DHT22;11207;59.512;18.050;2023-04-06T11:50:11;6.00;99.90
22081;DHT22;11207;59.512;18.050;2023-04-06T11:52:39;5.90;99.90
22081;DHT22;11207;59.512;18.050;2023-04-06T11:55:36;6.00;99.90
22081;DHT22;11207;59.512;18.050;2023-04-06T11:58:02;5.80;99.90
22081;DHT22;11207;59.512;18.050;2023-04-06T12:00:28;5.90;99.90
22081;DHT22;11207;59.512;18.050;2023-04-06T12:02:59;5.90;99.90
22081;DHT22;11207;59.512;18.050;2023-04-06T12:05:25;6.10;99.90
22081;DHT22;11207;59.512;18.050;2023-04-06T12:07:51;6.20;99.90
22081;DHT22;11207;59.512;18.050;2023-04-06T12:10:16;6.20;99.90
22081;DHT22;11207;59.512;18.050;2023-04-06T12:12:42;6.00;99.90
22081;DHT22;11207;59.512;18.050;2023-04-06T12:15:08;5.90;99.90
22081;DHT22;11207;59.512;18.050;2023-04-06T12:17:33;5.90;99.90
22081;DHT22;11207;59.512;18.050;2023-04-06T12:19:59;6.00;99.90
22081;DHT22;11207;59.512;18.050;2023-04-06T12:22:25;6.20;99.90
22081;DHT22;11207;59.512;18.050;2023-04-06T12:24:53;6.10;99.90
22081;DHT22;11207;59.512;18.050;2023-04-06T12:27:18;6.00;99.90
22081;DHT22;11207;59.512;18.050;2023-04-06T12:29:44;6.10;99.90
22081;DHT22;11207;59.512;18.050;2023-04-06T12:32:10;6.10;99.90
22081;DHT22;11207;59.512;18.050;2023-04-06T12:34:36;6.10;99.90
22081;DHT22;11207;59.512;18.050;2023-04-06T12:37:01;6.10;99.90
22081;DHT22;11207;59.512;18.050;2023-04-06T12:39:27;6.30;99.90
22081;DHT22;11207;59.512;18.050;2023-04-06T12:41:53;6.10;99.90
22081;DHT22;11207;59.512;18.050;2023-04-06T12:44:19;6.20;99.90
22081;DHT22;11207;59.512;18.050;2023-04-06T12:46:44;6.20;99.90
22081;DHT22;11207;59.512;18.050;2023-04-06T12:49:10;6.10;99.90
22081;DHT22;11207;59.512;18.050;2023-04-06T12:51:36;6.10;99.90
22081;DHT22;11207;59.512;18.050;2023-04-06T12:54:02;6.10;99.90
22081;DHT22;11207;59.512;18.050;2023-04-06T12:56:27;6.20;99.90
22081;DHT22;11207;59.512;18.050;2023-04-06T12:58:53;5.90;99.90
22081;DHT22;11207;59.512;18.050;2023-04-06T13:01:19;5.60;99.90
22081;DHT22;11207;59.512;18.050;2023-04-06T13:03:45;5.60;99.90
22081;DHT22;11207;59.512;18.050;2023-04-06T13:06:11;5.50;99.90
22081;DHT22;11207;59.512;18.050;2023-04-06T13:08:38;5.50;99.90
22081;DHT22;11207;59.512;18.050;2023-04-06T13:11:04;5.60;99.90
22081;DHT22;11207;59.512;18.050;2023-04-06T13:13:30;5.50;99.90
22081;DHT22;11207;59.512;18.050;2023-04-06T13:16:02;5.60;99.90
22081;DHT22;11207;59.512;18.050;2023-04-06T13:18:29;5.60;99.90
22081;DHT22;11207;59.512;18.050;2023-04-06T13:20:56;5.70;99.90
22081;DHT22;11207;59.512;18.050;2023-04-06T13:23:22;5.70;99.90
22081;DHT22;11207;59.512;18.050;2023-04-06T13:25:48;5.70;99.90
22081;DHT22;11207;59.512;18.050;2023-04-06T13:28:21;5.70;99.90
22081;DHT22;11207;59.512;18.050;2023-04-06T13:30:48;5.70;99.90
22081;DHT22;11207;59.512;18.050;2023-04-06T13:33:14;5.70;99.90
22081;DHT22;11207;59.512;18.050;2023-04-06T13:35:44;5.70;99.90
22081;DHT22;11207;59.512;18.050;2023-04-06T13:38:11;5.70;99.90
22081;DHT22;11207;59.512;18.050;2023-04-06T13:40:39;5.50;99.90
22081;DHT22;11207;59.512;18.050;2023-04-06T13:43:05;5.60;99.90
22081;DHT22;11207;59.512;18.050;2023-04-06T13:45:31;5.50;99.90
22081;DHT22;11207;59.512;18.050;2023-04-06T13:47:56;5.40;99.90
22081;DHT22;11207;59.512;18.050;2023-04-06T13:50:22;5.50;99.90
22081;DHT22;11207;59.512;18.050;2023-04-06T13:52:47;5.40;99.90
22081;DHT22;11207;59.512;18.050;2023-04-06T13:55:14;5.40;99.90
22081;DHT22;11207;59.512;18.050;2023-04-06T13:57:41;5.60;99.90
22081;DHT22;11207;59.512;18.050;2023-04-06T14:00:07;5.40;99.90
22081;DHT22;11207;59.512;18.050;2023-04-06T14:02:33;5.40;99.90
22081;DHT22;11207;59.512;18.050;2023-04-06T14:04:59;5.40;99.90
22081;DHT22;11207;59.512;18.050;2023-04-06T14:07:25;5.50;99.90
22081;DHT22;11207;59.512;18.050;2023-04-06T14:09:52;5.40;99.90
22081;DHT22;11207;59.512;18.050;2023-04-06T14:12:18;5.50;99.90
22081;DHT22;11207;59.512;18.050;2023-04-06T14:14:44;5.50;99.90
22081;DHT22;11207;59.512;18.050;2023-04-06T14:17:09;5.40;99.90
22081;DHT22;11207;59.512;18.050;2023-04-06T14:19:38;5.50;99.90
22081;DHT22;11207;59.512;18.050;2023-04-06T14:22:04;5.40;99.90
22081;DHT22;11207;59.512;18.050;2023-04-06T14:24:30;5.40;99.90
22081;DHT22;11207;59.512;18.050;2023-04-06T14:26:59;5.40;99.90
22081;DHT22;11207;59.512;18.050;2023-04-06T14:29:27;5.50;99.90
22081;DHT22;11207;59.512;18.050;2023-04-06T14:31:53;5.50;99.90
22081;DHT22;11207;59.512;18.050;2023-04-06T14:34:27;5.50;99.90
22081;DHT22;11207;59.512;18.050;2023-04-06T14:36:53;5.50;99.90
22081;DHT22;11207;59.512;18.050;2023-04-06T14:39:19;5.50;99.90
22081;DHT22;11207;59.512;18.050;2023-04-06T14:41:44;5.70;99.90
22081;DHT22;11207;59.512;18.050;2023-04-06T14:44:10;5.60;99.90
22081;DHT22;11207;59.512;18.050;2023-04-06T14:46:37;5.60;99.90
22081;DHT22;11207;59.512;18.050;2023-04-06T14:49:03;5.60;99.90
22081;DHT22;11207;59.512;18.050;2023-04-06T14:51:29;5.60;99.90
22081;DHT22;11207;59.512;18.050;2023-04-06T14:53:56;5.50;99.90
22081;DHT22;11207;59.512;18.050;2023-04-06T14:56:23;5.50;99.90
22081;DHT22;11207;59.512;18.050;2023-04-06T14:58:50;5.50;99.90
22081;DHT22;11207;59.512;18.050;2023-04-06T15:01:18;5.40;99.90
22081;DHT22;11207;59.512;18.050;2023-04-06T15:03:43;5.40;99.90
22081;DHT22;11207;59.512;18.050;2023-04-06T15:06:13;5.30;99.90
22081;DHT22;11207;59.512;18.050;2023-04-06T15:08:43;5.10;99.90
22081;DHT22;11207;59.512;18.050;2023-04-06T15:11:09;4.90;99.90
22081;DHT22;11207;59.512;18.050;2023-04-06T15:13:35;4.80;99.90
22081;DHT22;11207;59.512;18.050;2023-04-06T15:16:00;4.80;99.90
22081;DHT22;11207;59.512;18.050;2023-04-06T15:18:26;4.80;99.90
22081;DHT22;11207;59.512;18.050;2023-04-06T15:20:52;4.70;99.90
22081;DHT22;11207;59.512;18.050;2023-04-06T15:23:17;4.60;99.90
22081;DHT22;11207;59.512;18.050;2023-04-06T15:25:43;4.60;99.90
22081;DHT22;11207;59.512;18.050;2023-04-06T15:28:09;4.60;99.90